createdAt,value
2018-10-01T00:01:52.582Z,101128.00
2018-10-01T00:06:56.426Z,101139.00
2018-10-01T00:12:00.514Z,101133.00
2018-10-01T00:17:04.647Z,101125.00
2018-10-01T00:22:13.862Z,101131.00
2018-10-01T00:27:17.928Z,101134.00
2018-10-01T00:32:21.780Z,101133.00
2018-10-01T00:37:25.875Z,101125.00
2018-10-01T00:42:29.682Z,101124.00
2018-10-01T00:47:33.734Z,101124.00
2018-10-01T00:52:37.868Z,101117.00
2018-10-01T00:57:41.959Z,101112.00
2018-10-01T01:02:46.124Z,101117.00
2018-10-01T01:07:49.931Z,101116.00
2018-10-01T01:12:54.030Z,101112.00
2018-10-01T01:17:58.120Z,101109.00
2018-10-01T01:23:01.960Z,101120.00
2018-10-01T01:28:06.090Z,101121.00
2018-10-01T01:33:09.915Z,101113.00
2018-10-01T01:38:13.751Z,101119.00
2018-10-01T01:43:17.592Z,101119.00
2018-10-01T01:48:21.690Z,101110.00
2018-10-01T01:53:25.775Z,101093.00
2018-10-01T01:58:29.683Z,101098.00
2018-10-01T02:03:33.556Z,101103.00
2018-10-01T02:08:37.999Z,101108.00
2018-10-01T02:13:41.866Z,101106.00
2018-10-01T02:18:45.988Z,101107.00
2018-10-01T02:23:50.061Z,101116.00
2018-10-01T02:28:54.214Z,101108.00
2018-10-01T02:33:58.295Z,101102.00
2018-10-01T02:39:02.126Z,101107.00
2018-10-01T02:44:06.158Z,101105.00
2018-10-01T02:49:10.351Z,101112.00
2018-10-01T02:54:19.860Z,101110.00
2018-10-01T02:59:23.743Z,101114.00
2018-10-01T03:04:28.288Z,101094.00
2018-10-01T03:09:32.386Z,101101.00
2018-10-01T03:14:36.496Z,101107.00
2018-10-01T03:19:40.375Z,101111.00
2018-10-01T03:24:44.507Z,101121.00
2018-10-01T03:29:48.606Z,101105.00
2018-10-01T03:34:53.239Z,101105.00
2018-10-01T03:39:57.889Z,101122.00
2018-10-01T03:45:01.926Z,101131.00
2018-10-01T03:50:06.004Z,101131.00
2018-10-01T03:55:09.909Z,101135.00
2018-10-01T04:00:14.009Z,101121.00
2018-10-01T04:05:18.094Z,101135.00
2018-10-01T04:10:22.010Z,101139.00
2018-10-01T04:15:25.826Z,101145.00
2018-10-01T04:20:29.895Z,101129.00
2018-10-01T04:25:33.715Z,101156.00
2018-10-01T04:30:37.557Z,101156.00
2018-10-01T04:35:41.602Z,101164.00
2018-10-01T04:40:45.685Z,101164.00
2018-10-01T04:45:49.788Z,101172.00
2018-10-01T04:50:53.587Z,101183.00
2018-10-01T04:55:57.647Z,101163.00
2018-10-01T05:01:01.511Z,101182.00
2018-10-01T05:06:05.445Z,101195.00
2018-10-01T05:11:09.480Z,101199.00
2018-10-01T05:16:13.526Z,101201.00
2018-10-01T05:21:17.571Z,101207.00
2018-10-01T05:26:21.680Z,101215.00
2018-10-01T05:31:25.722Z,101219.00
2018-10-01T05:36:29.547Z,101225.00
2018-10-01T05:41:33.585Z,101145.00
2018-10-01T05:46:37.429Z,101157.00
2018-10-01T05:51:41.391Z,101171.00
2018-10-01T05:56:45.204Z,101177.00
2018-10-01T06:01:49.267Z,101178.00
2018-10-01T06:06:53.161Z,101177.00
2018-10-01T06:11:57.278Z,101178.00
2018-10-01T06:17:01.335Z,101188.00
2018-10-01T06:22:05.498Z,101207.00
2018-10-01T06:27:09.373Z,101218.00
2018-10-01T06:32:13.205Z,101214.00
2018-10-01T06:37:17.323Z,101218.00
2018-10-01T06:42:21.448Z,101213.00
2018-10-01T06:47:25.536Z,101207.00
2018-10-01T06:52:29.356Z,101193.00
2018-10-01T06:57:33.317Z,101195.00
2018-10-01T07:02:38.116Z,101195.00
2018-10-01T07:07:42.194Z,101214.00
2018-10-01T07:12:46.011Z,101209.00
2018-10-01T07:17:50.041Z,101214.00
2018-10-01T07:22:53.948Z,101224.00
2018-10-01T07:27:58.020Z,101243.00
2018-10-01T07:33:01.812Z,101291.00
2018-10-01T07:38:05.863Z,101329.00
2018-10-01T07:43:09.925Z,101362.00
2018-10-01T07:48:13.753Z,101382.00
2018-10-01T07:53:17.844Z,101389.00
2018-10-01T07:58:21.910Z,101400.00
2018-10-01T08:03:25.943Z,101431.00
2018-10-01T08:08:29.988Z,101478.00
2018-10-01T08:13:33.769Z,101490.00
2018-10-01T08:18:37.963Z,101506.00
2018-10-01T08:23:41.827Z,101530.00
2018-10-01T08:28:45.609Z,101506.00
2018-10-01T08:33:49.741Z,101497.00
2018-10-01T08:38:53.852Z,101514.00
2018-10-01T08:43:57.689Z,101526.00
2018-10-01T08:49:05.947Z,101528.00
2018-10-01T08:54:14.598Z,101544.00
2018-10-01T08:59:18.667Z,101551.00
2018-10-01T09:04:22.811Z,101582.00
2018-10-01T09:09:26.870Z,101577.00
2018-10-01T09:14:30.950Z,101612.00
2018-10-01T09:19:35.010Z,101626.00
2018-10-01T09:24:39.130Z,101598.00
2018-10-01T09:29:42.982Z,101599.00
2018-10-01T09:34:47.049Z,101619.00
2018-10-01T09:39:51.010Z,101610.00
2018-10-01T09:44:55.080Z,101642.00
2018-10-01T09:49:58.894Z,101661.00
2018-10-01T09:55:02.779Z,101656.00
2018-10-01T10:00:07.041Z,101651.00
2018-10-01T10:05:10.869Z,101615.00
2018-10-01T10:10:15.034Z,101617.00
2018-10-01T10:15:18.786Z,101620.00
2018-10-01T10:20:22.724Z,101626.00
2018-10-01T10:25:26.518Z,101621.00
2018-10-01T10:30:30.402Z,101616.00
2018-10-01T10:35:34.259Z,101623.00
2018-10-01T10:40:38.094Z,101613.00
2018-10-01T10:45:41.902Z,101608.00
2018-10-01T10:50:46.007Z,101609.00
2018-10-01T10:55:49.841Z,101614.00
2018-10-01T11:00:53.706Z,101611.00
2018-10-01T11:05:57.777Z,101620.00
2018-10-01T11:11:01.601Z,101618.00
2018-10-01T11:16:06.009Z,101625.00
2018-10-01T11:21:10.132Z,101620.00
2018-10-01T11:26:13.918Z,101627.00
2018-10-01T11:31:18.010Z,101632.00
2018-10-01T11:36:22.174Z,101628.00
2018-10-01T11:41:26.008Z,101631.00
2018-10-01T11:46:29.832Z,101621.00
2018-10-01T11:51:33.959Z,101615.00
2018-10-01T11:56:38.038Z,101607.00
2018-10-01T12:01:41.938Z,101636.00
2018-10-01T12:06:45.996Z,101606.00
2018-10-01T12:11:50.086Z,101614.00
2018-10-01T12:16:54.151Z,101622.00
2018-10-01T12:21:58.059Z,101628.00
2018-10-01T12:27:02.111Z,101630.00
2018-10-01T12:32:06.256Z,101625.00
2018-10-01T12:37:10.065Z,101658.00
2018-10-01T12:42:13.941Z,101662.00
2018-10-01T12:47:17.753Z,101659.00
2018-10-01T12:52:22.250Z,101661.00
2018-10-01T12:57:26.305Z,101654.00
2018-10-01T13:02:30.342Z,101651.00
2018-10-01T13:07:34.382Z,101652.00
2018-10-01T13:12:38.325Z,101649.00
2018-10-01T13:17:42.277Z,101618.00
2018-10-01T13:22:46.319Z,101604.00
2018-10-01T13:27:50.376Z,101560.00
2018-10-01T13:32:54.433Z,101552.00
2018-10-01T13:37:58.519Z,101558.00
2018-10-01T13:43:02.567Z,101558.00
2018-10-01T13:48:06.693Z,101614.00
2018-10-01T13:53:10.742Z,101668.00
2018-10-01T13:58:14.684Z,101666.00
2018-10-01T14:03:18.419Z,101612.00
2018-10-01T14:08:22.535Z,101537.00
2018-10-01T14:13:26.698Z,101536.00
2018-10-01T14:18:30.451Z,101529.00
2018-10-01T14:23:34.774Z,101496.00
2018-10-01T14:28:38.610Z,101503.00
2018-10-01T14:33:42.707Z,101543.00
2018-10-01T14:38:46.539Z,101570.00
2018-10-01T14:43:50.651Z,101588.00
2018-10-01T14:48:54.469Z,101583.00
2018-10-01T14:53:58.586Z,101576.00
2018-10-01T14:59:02.395Z,101573.00
2018-10-01T15:04:06.233Z,101570.00
2018-10-01T15:09:11.621Z,101565.00
2018-10-01T15:14:15.538Z,101560.00
2018-10-01T15:19:19.367Z,101569.00
2018-10-01T15:24:23.214Z,101585.00
2018-10-01T15:29:27.329Z,101589.00
2018-10-01T15:34:31.482Z,101595.00
2018-10-01T15:39:35.356Z,101606.00
2018-10-01T15:44:39.162Z,101621.00
2018-10-01T15:49:43.003Z,101662.00
2018-10-01T15:54:47.090Z,101663.00
2018-10-01T15:59:51.187Z,101657.00
2018-10-01T16:04:55.242Z,101666.00
2018-10-01T16:09:59.285Z,101664.00
2018-10-01T16:15:03.596Z,101665.00
2018-10-01T16:20:07.458Z,101672.00
2018-10-01T16:25:11.274Z,101691.00
2018-10-01T16:30:15.091Z,101698.00
2018-10-01T16:35:18.901Z,101710.00
2018-10-01T16:40:23.172Z,101727.00
2018-10-01T16:45:27.220Z,101731.00
2018-10-01T16:50:31.265Z,101727.00
2018-10-01T16:55:35.081Z,101746.00
2018-10-01T17:00:39.188Z,101759.00
2018-10-01T17:05:43.284Z,101766.00
2018-10-01T17:10:47.143Z,101770.00
2018-10-01T17:15:52.280Z,101782.00
2018-10-01T17:20:56.090Z,101795.00
2018-10-01T17:26:00.168Z,101820.00
2018-10-01T17:31:04.286Z,101830.00
2018-10-01T17:36:08.400Z,101826.00
2018-10-01T17:41:12.496Z,101819.00
2018-10-01T17:46:16.583Z,101810.00
2018-10-01T17:51:20.786Z,101816.00
2018-10-01T17:56:25.010Z,101812.00
2018-10-01T18:01:28.877Z,101810.00
2018-10-01T18:06:32.945Z,101783.00
2018-10-01T18:11:37.254Z,101773.00
2018-10-01T18:16:41.074Z,101782.00
2018-10-01T18:21:45.202Z,101784.00
2018-10-01T18:26:49.057Z,101809.00
2018-10-01T18:31:53.799Z,101824.00
2018-10-01T18:36:57.820Z,101832.00
2018-10-01T18:42:01.993Z,101842.00
2018-10-01T18:47:06.086Z,101853.00
2018-10-01T18:52:10.129Z,101865.00
2018-10-01T18:57:13.962Z,101877.00
2018-10-01T19:02:17.815Z,101877.00
2018-10-01T19:07:21.962Z,101878.00
2018-10-01T19:12:25.905Z,101874.00
2018-10-01T19:17:29.871Z,101871.00
2018-10-01T19:22:33.733Z,101861.00
2018-10-01T19:27:37.730Z,101856.00
2018-10-01T19:32:41.579Z,101842.00
2018-10-01T19:37:45.414Z,101837.00
2018-10-01T19:42:49.267Z,101831.00
2018-10-01T19:47:53.213Z,101829.00
2018-10-01T19:52:57.382Z,101816.00
2018-10-01T19:58:01.184Z,101806.00
2018-10-01T20:03:05.077Z,101799.00
2018-10-01T20:08:08.884Z,101792.00
2018-10-01T20:13:13.007Z,101786.00
2018-10-01T20:18:16.838Z,101776.00
2018-10-01T20:23:20.702Z,101771.00
2018-10-01T20:28:24.638Z,101776.00
2018-10-01T20:33:28.627Z,101788.00
2018-10-01T20:38:32.726Z,101797.00
2018-10-01T20:43:36.602Z,101794.00
2018-10-01T20:48:40.705Z,101784.00
2018-10-01T20:53:44.811Z,101778.00
2018-10-01T20:58:48.844Z,101776.00
2018-10-01T21:05:17.102Z,101760.00
2018-10-01T21:10:21.246Z,101762.00
2018-10-01T21:15:25.322Z,101759.00
2018-10-01T21:20:29.193Z,101740.00
2018-10-01T21:25:33.050Z,101711.00
2018-10-01T21:30:37.176Z,101702.00
2018-10-01T21:35:41.214Z,101679.00
2018-10-01T21:41:48.624Z,101683.00
2018-10-01T21:46:53.593Z,101668.00
2018-10-01T21:51:57.671Z,101629.00
2018-10-01T21:57:01.738Z,101570.00
2018-10-01T22:02:05.902Z,101531.00
2018-10-01T22:07:09.995Z,101449.00
2018-10-01T22:12:13.895Z,101108.00
2018-10-01T22:17:17.705Z,101037.00
2018-10-01T22:22:22.233Z,100988.00
2018-10-01T22:27:26.049Z,100951.00
2018-10-01T22:32:30.108Z,100897.00
2018-10-01T22:37:33.901Z,100837.00
2018-10-01T22:42:38.008Z,100825.00
2018-10-01T22:47:41.825Z,100803.00
2018-10-01T22:52:45.886Z,100784.00
2018-10-01T22:57:49.708Z,100747.00
2018-10-01T23:02:53.559Z,100657.00
2018-10-01T23:07:57.628Z,100633.00
2018-10-01T23:13:01.445Z,100568.00
2018-10-01T23:18:05.552Z,100519.00
2018-10-01T23:23:09.751Z,100460.00
2018-10-01T23:28:13.565Z,100425.00
2018-10-01T23:33:17.770Z,100383.00
2018-10-01T23:38:21.707Z,100354.00
2018-10-01T23:43:25.684Z,100341.00
2018-10-01T23:48:29.740Z,100313.00
2018-10-01T23:53:33.557Z,100312.00
2018-10-01T23:58:37.913Z,100302.00
